createdAt,value
2023-05-06T08:12:43.001Z,19.63
2023-05-06T08:14:45.817Z,19.63
2023-05-06T08:16:50.428Z,19.35
2023-05-06T08:18:52.744Z,19.58
2023-05-06T08:20:55.754Z,19.77
2023-05-06T08:22:58.085Z,19.67
2023-05-06T08:25:01.383Z,19.93
2023-05-06T08:27:04.401Z,20.07
2023-05-06T08:29:08.087Z,19.97
2023-05-06T08:31:10.492Z,19.83
2023-05-06T08:33:13.160Z,20.02
2023-05-06T08:35:15.500Z,20.09
2023-05-06T08:37:17.796Z,20.08
2023-05-06T08:39:20.648Z,20.01
2023-05-06T08:41:26.400Z,20.53
2023-05-06T08:43:31.971Z,20.65
2023-05-06T08:45:34.556Z,20.60
2023-05-06T08:47:37.104Z,20.41
2023-05-06T08:49:39.499Z,20.43
2023-05-06T08:51:46.630Z,20.56
2023-05-06T08:53:49.516Z,20.71
2023-05-06T08:55:54.065Z,20.96
2023-05-06T08:57:58.104Z,21.08
2023-05-06T09:00:01.151Z,21.28
2023-05-06T09:02:05.044Z,21.26
2023-05-06T09:04:09.143Z,21.26
2023-05-06T09:06:11.477Z,21.32
2023-05-06T09:08:14.600Z,21.39
2023-05-06T09:10:19.012Z,21.30
2023-05-06T09:12:21.504Z,21.05
2023-05-06T09:14:24.172Z,20.91
2023-05-06T09:16:31.015Z,21.09
2023-05-06T09:18:37.289Z,21.17
2023-05-06T09:20:59.364Z,21.08
2023-05-06T09:23:03.402Z,21.17
2023-05-06T09:25:06.239Z,20.95
2023-05-06T09:27:10.662Z,21.13
2023-05-06T09:29:14.024Z,21.21
2023-05-06T09:31:16.405Z,21.45
2023-05-06T09:33:18.732Z,21.45
2023-05-06T09:35:21.430Z,21.47
2023-05-06T09:37:24.622Z,21.49
2023-05-06T09:39:27.723Z,21.49
2023-05-06T09:41:31.030Z,21.45
2023-05-06T09:43:33.834Z,21.83
2023-05-06T09:45:36.822Z,21.97
2023-05-06T09:47:39.669Z,21.79
2023-05-06T09:49:42.309Z,21.89
2023-05-06T09:51:47.918Z,22.03
2023-05-06T09:53:51.839Z,22.29
2023-05-06T09:55:56.291Z,22.21
2023-05-06T09:58:00.509Z,22.38
2023-05-06T10:00:04.107Z,22.45
2023-05-06T10:02:15.225Z,22.94
2023-05-06T10:04:18.509Z,23.18
2023-05-06T10:06:23.172Z,23.20
2023-05-06T10:08:26.991Z,23.29
2023-05-06T10:10:30.125Z,23.46
2023-05-06T10:12:32.623Z,23.79
2023-05-06T10:14:38.892Z,23.80
2023-05-06T10:16:42.354Z,23.73
2023-05-06T10:18:46.584Z,23.89
2023-05-06T10:20:53.624Z,23.74
2023-05-06T10:23:05.575Z,23.98
2023-05-06T10:25:17.196Z,24.23
2023-05-06T10:27:24.814Z,24.57
2023-05-06T10:29:27.478Z,24.01
2023-05-06T10:31:30.784Z,24.01
2023-05-06T10:33:33.749Z,23.67
2023-05-06T10:35:42.535Z,23.87
2023-05-06T10:37:47.620Z,24.41
2023-05-06T10:39:49.979Z,24.90
2023-05-06T10:41:52.989Z,25.22
2023-05-06T10:44:00.072Z,25.57
2023-05-06T10:46:17.196Z,25.45
2023-05-06T10:48:19.833Z,25.51
2023-05-06T10:50:23.734Z,25.54
2023-05-06T10:52:26.286Z,25.38
2023-05-06T10:54:28.868Z,25.86
2023-05-06T10:56:58.994Z,26.04
2023-05-06T10:59:09.034Z,25.95
2023-05-06T11:01:17.550Z,26.17
2023-05-06T11:03:24.059Z,26.77
2023-05-06T11:05:26.818Z,26.67
2023-05-06T11:07:29.597Z,25.65
2023-05-06T11:09:31.916Z,25.89
2023-05-06T11:11:51.886Z,25.91
2023-05-06T11:13:54.527Z,25.38
2023-05-06T11:15:58.454Z,25.14
2023-05-06T11:18:00.840Z,25.21
2023-05-06T11:20:19.879Z,25.83
2023-05-06T11:22:40.306Z,26.03
2023-05-06T11:24:43.948Z,26.72
2023-05-06T11:26:47.745Z,27.34
2023-05-06T11:28:51.518Z,27.73
2023-05-06T11:30:55.160Z,28.17
2023-05-06T11:33:05.373Z,27.54
2023-05-06T11:35:08.382Z,27.01
2023-05-06T11:37:10.888Z,26.64
2023-05-06T11:39:14.379Z,26.74
2023-05-06T11:41:18.061Z,26.19
2023-05-06T11:43:20.760Z,26.33
2023-05-06T11:45:23.565Z,26.20
2023-05-06T11:47:25.881Z,26.31
2023-05-06T11:49:28.545Z,26.12
2023-05-06T11:51:32.509Z,26.05
2023-05-06T11:53:34.884Z,26.13
2023-05-06T11:55:38.627Z,25.54
2023-05-06T11:57:44.742Z,24.93
2023-05-06T11:59:47.036Z,24.49
2023-05-06T12:01:49.738Z,24.44
2023-05-06T12:03:54.956Z,24.44
2023-05-06T12:05:58.355Z,24.69
2023-05-06T12:08:00.685Z,24.70
2023-05-06T12:10:04.394Z,24.57
2023-05-06T12:12:08.541Z,24.19
2023-05-06T12:14:11.592Z,23.46
2023-05-06T12:16:15.731Z,23.60
2023-05-06T12:18:18.634Z,23.39
2023-05-06T12:20:22.170Z,23.56
2023-05-06T12:22:24.885Z,23.71
2023-05-06T12:24:30.374Z,23.84
2023-05-06T12:26:49.170Z,23.88
2023-05-06T12:29:09.164Z,23.84
2023-05-06T12:31:22.147Z,23.99
2023-05-06T12:33:24.731Z,23.93
2023-05-06T12:35:32.073Z,23.58
2023-05-06T12:37:34.452Z,23.68
2023-05-06T12:39:38.400Z,23.54
2023-05-06T12:41:43.778Z,23.50
2023-05-06T12:43:46.302Z,23.44
2023-05-06T12:46:06.343Z,23.22
2023-05-06T12:48:16.164Z,23.07
2023-05-06T12:50:34.627Z,22.76
2023-05-06T12:52:44.381Z,23.14
2023-05-06T12:54:48.102Z,23.31
2023-05-06T12:56:50.465Z,23.61
2023-05-06T12:59:00.854Z,23.66
2023-05-06T13:01:04.138Z,23.81
2023-05-06T13:03:06.666Z,23.85
2023-05-06T13:05:09.696Z,23.84
2023-05-06T13:07:12.663Z,23.79
2023-05-06T13:09:15.489Z,23.64
2023-05-06T13:11:18.025Z,23.70
2023-05-06T13:13:21.155Z,23.45
2023-05-06T13:15:24.118Z,23.28
2023-05-06T13:17:26.568Z,22.88
2023-05-06T13:19:32.845Z,23.01
2023-05-06T13:21:39.006Z,22.90
2023-05-06T13:23:47.816Z,22.64
2023-05-06T13:26:03.717Z,22.62
2023-05-06T13:28:07.746Z,22.48
2023-05-06T13:30:10.487Z,22.42
2023-05-06T13:32:13.471Z,22.44
2023-05-06T13:34:15.748Z,22.35
2023-05-06T13:36:18.034Z,22.39
2023-05-06T13:38:21.096Z,22.49
2023-05-06T13:40:23.395Z,22.76
2023-05-06T13:42:25.642Z,22.43
2023-05-06T13:44:28.175Z,22.62
2023-05-06T13:46:31.407Z,22.60
2023-05-06T13:48:34.211Z,22.29
2023-05-06T13:50:37.294Z,21.98
2023-05-06T13:52:39.575Z,21.78
2023-05-06T13:54:41.944Z,21.85
2023-05-06T13:56:44.520Z,21.80
2023-05-06T13:58:46.864Z,22.02
2023-05-06T14:00:49.669Z,21.50
2023-05-06T14:02:52.251Z,21.40
2023-05-06T14:04:55.215Z,20.86
2023-05-06T14:06:57.607Z,20.91
2023-05-06T14:09:00.228Z,20.62
2023-05-06T14:11:02.819Z,20.56
2023-05-06T14:13:07.178Z,20.45
2023-05-06T14:15:10.983Z,20.57
2023-05-06T14:17:13.551Z,20.58
2023-05-06T14:19:15.972Z,20.54
2023-05-06T14:21:18.584Z,20.46
2023-05-06T14:23:21.229Z,20.73
2023-05-06T14:25:26.927Z,20.68
2023-05-06T14:27:29.781Z,20.48
2023-05-06T14:29:32.275Z,19.99
2023-05-06T14:31:34.747Z,19.85
2023-05-06T14:33:38.532Z,19.72
2023-05-06T14:35:46.081Z,19.80
2023-05-06T14:37:48.552Z,19.93
2023-05-06T14:39:51.168Z,19.59
2023-05-06T14:41:53.660Z,19.77
2023-05-06T14:43:55.946Z,19.99
2023-05-06T14:45:58.598Z,19.71
2023-05-06T14:48:01.176Z,19.49
2023-05-06T14:50:03.581Z,19.27
2023-05-06T14:52:06.238Z,19.45
2023-05-06T14:54:08.718Z,19.43
2023-05-06T14:56:11.585Z,19.21
2023-05-06T14:58:14.341Z,19.06
2023-05-06T15:00:17.223Z,19.25
2023-05-06T15:02:19.793Z,19.28
2023-05-06T15:04:22.395Z,19.45
2023-05-06T15:06:25.220Z,19.37
2023-05-06T15:08:27.696Z,19.33
2023-05-06T15:10:30.327Z,19.52
2023-05-06T15:12:33.699Z,19.36
2023-05-06T15:14:36.384Z,19.45
2023-05-06T15:16:39.068Z,19.05
2023-05-06T15:18:42.084Z,18.92
2023-05-06T15:20:44.433Z,19.14
2023-05-06T15:22:47.108Z,19.24
2023-05-06T15:24:49.672Z,19.41
2023-05-06T15:26:53.801Z,19.66
2023-05-06T15:28:56.389Z,19.74
2023-05-06T15:30:58.617Z,19.86
2023-05-06T15:33:02.742Z,19.91
2023-05-06T15:35:06.331Z,19.84
2023-05-06T15:37:08.697Z,20.10
2023-05-06T15:39:11.165Z,20.00
2023-05-06T15:41:14.044Z,20.11
2023-05-06T15:43:22.911Z,20.16
2023-05-06T15:45:26.246Z,20.10
2023-05-06T15:47:28.934Z,20.08
2023-05-06T15:51:36.986Z,20.23
2023-05-06T15:53:40.413Z,20.14
2023-05-06T15:55:46.482Z,20.10
2023-05-06T15:57:55.211Z,20.07
2023-05-06T15:59:57.805Z,20.45
2023-05-06T16:02:25.449Z,20.71
2023-05-06T16:04:23.657Z,20.91
2023-05-06T16:06:27.072Z,21.23
2023-05-06T16:08:29.485Z,21.12
2023-05-06T16:10:32.251Z,21.55
2023-05-06T16:12:34.685Z,21.43
2023-05-06T16:14:37.081Z,20.82
2023-05-06T16:16:39.735Z,20.80
2023-05-06T16:18:42.074Z,20.71
2023-05-06T16:20:44.720Z,20.62
2023-05-06T16:22:50.950Z,20.62
2023-05-06T16:24:53.333Z,20.69
2023-05-06T16:26:56.076Z,20.56
2023-05-06T16:28:59.621Z,20.56
2023-05-06T16:31:02.797Z,20.55
2023-05-06T16:33:05.290Z,20.57
2023-05-06T16:35:08.497Z,20.65
2023-05-06T16:37:10.855Z,20.47
2023-05-06T16:39:13.237Z,20.30
2023-05-06T16:41:15.954Z,20.21
2023-05-06T16:43:21.371Z,20.22
2023-05-06T16:45:23.691Z,20.11
2023-05-06T16:47:26.866Z,19.80
2023-05-06T16:49:29.374Z,19.89
2023-05-06T16:51:31.706Z,19.93
2023-05-06T16:53:34.328Z,19.89
2023-05-06T16:55:36.917Z,20.00
2023-05-06T16:57:39.331Z,20.06
2023-05-06T16:59:41.905Z,20.01
2023-05-06T17:01:44.808Z,19.99
2023-05-06T17:03:47.272Z,20.08
2023-05-06T17:05:49.871Z,19.95
2023-05-06T17:07:52.605Z,19.89
2023-05-06T17:09:54.968Z,19.93
2023-05-06T17:11:57.802Z,20.24
2023-05-06T17:14:00.079Z,20.29
2023-05-06T17:16:02.439Z,20.21
2023-05-06T17:18:05.167Z,19.82
2023-05-06T17:20:08.406Z,19.65
2023-05-06T17:22:11.101Z,19.63
2023-05-06T17:24:13.746Z,19.86
2023-05-06T17:26:17.822Z,19.77
2023-05-06T17:28:20.630Z,19.82
2023-05-06T17:30:23.684Z,19.92
2023-05-06T17:32:26.274Z,20.00
2023-05-06T17:34:28.700Z,19.92
2023-05-06T17:36:31.745Z,19.92
2023-05-06T17:38:34.063Z,19.84
2023-05-06T17:40:36.370Z,19.88
2023-05-06T17:42:39.125Z,19.93
2023-05-06T17:44:42.847Z,19.89
2023-05-06T17:46:48.205Z,19.86
2023-05-06T17:48:51.241Z,19.86
2023-05-06T17:50:53.889Z,20.00
2023-05-06T17:52:56.297Z,19.87
2023-05-06T17:55:11.781Z,19.93
2023-05-06T17:57:18.470Z,19.87
2023-05-06T17:59:21.124Z,19.84
2023-05-06T18:01:23.771Z,19.87
2023-05-06T18:03:26.725Z,19.94
2023-05-06T18:05:29.334Z,20.11
2023-05-06T18:07:31.715Z,19.83
2023-05-06T18:09:35.984Z,19.74
2023-05-06T18:11:38.813Z,19.93
2023-05-06T18:13:41.268Z,19.80
2023-05-06T18:15:43.977Z,19.77
2023-05-06T18:17:46.525Z,19.75
2023-05-06T18:19:48.831Z,19.77
2023-05-06T18:21:51.406Z,19.80
2023-05-06T18:23:58.805Z,19.89
2023-05-06T18:26:06.903Z,19.94
2023-05-06T18:28:09.549Z,20.04
2023-05-06T18:30:12.150Z,20.05
2023-05-06T18:32:14.821Z,19.92
2023-05-06T18:34:17.472Z,19.82
2023-05-06T18:36:19.782Z,19.84
2023-05-06T18:38:26.692Z,19.91
2023-05-06T18:40:29.427Z,19.94
2023-05-06T18:42:32.364Z,19.97
2023-05-06T18:44:35.772Z,19.87
2023-05-06T18:46:38.412Z,19.92
2023-05-06T18:48:40.729Z,19.92
2023-05-06T18:50:42.995Z,19.82
2023-05-06T18:52:45.705Z,19.89
2023-05-06T18:54:47.982Z,19.86
2023-05-06T18:56:53.098Z,19.83
2023-05-06T18:58:55.893Z,19.89
2023-05-06T19:00:58.410Z,19.87
2023-05-06T19:03:00.951Z,19.99
2023-05-06T19:05:03.985Z,19.82
2023-05-06T19:07:06.311Z,19.78
2023-05-06T19:09:08.675Z,19.90
2023-05-06T19:11:21.531Z,19.56
2023-05-06T19:13:23.999Z,19.61
2023-05-06T19:15:26.508Z,19.61
2023-05-06T19:17:29.138Z,19.46
2023-05-06T19:19:31.859Z,19.43
2023-05-06T19:21:34.802Z,19.46
2023-05-06T19:23:37.352Z,19.57
2023-05-06T19:25:39.826Z,19.65
2023-05-06T19:27:42.102Z,19.61
2023-05-06T19:29:44.715Z,19.45
2023-05-06T19:31:47.040Z,19.45
2023-05-06T19:33:49.549Z,19.40
2023-05-06T19:35:52.158Z,19.55
2023-05-06T19:37:54.750Z,19.71
2023-05-06T19:39:57.078Z,19.66
2023-05-06T19:41:59.786Z,19.75
2023-05-06T19:44:02.139Z,19.59
2023-05-06T19:46:06.483Z,19.42
2023-05-06T19:48:09.209Z,19.31
2023-05-06T19:50:12.068Z,19.17
2023-05-06T19:52:14.549Z,19.20
2023-05-06T19:54:19.346Z,19.17
2023-05-06T19:56:21.752Z,19.20
2023-05-06T19:58:24.052Z,19.08
2023-05-06T20:00:28.148Z,19.04
2023-05-06T20:02:31.562Z,18.87
2023-05-06T20:04:34.708Z,18.89
2023-05-06T20:06:37.060Z,18.99
2023-05-06T20:08:39.621Z,18.90
2023-05-06T20:10:42.006Z,18.95
2023-05-06T20:12:44.406Z,19.07
2023-05-06T20:14:47.038Z,19.03
2023-05-06T20:16:49.443Z,18.96
2023-05-06T20:18:52.793Z,18.78
2023-05-06T20:20:56.363Z,18.69
2023-05-06T20:22:58.792Z,18.63
2023-05-06T20:25:16.277Z,18.71
2023-05-06T20:27:21.834Z,18.60
2023-05-06T20:29:24.177Z,18.71
2023-05-06T20:31:26.593Z,18.71
2023-05-06T20:33:29.195Z,18.74
2023-05-06T20:35:31.461Z,18.83
2023-05-06T20:37:35.429Z,18.72
2023-05-06T20:39:38.040Z,18.92
2023-05-06T20:41:40.395Z,18.78
2023-05-06T20:43:42.712Z,18.86
2023-05-06T20:45:45.431Z,18.97
2023-05-06T20:47:47.808Z,18.86
2023-05-06T20:49:50.115Z,18.81
2023-05-06T20:51:52.734Z,18.90
2023-05-06T20:53:57.021Z,18.88
2023-05-06T20:56:00.326Z,18.97
2023-05-06T20:58:02.949Z,18.99
2023-05-06T21:00:07.818Z,18.69
2023-05-06T21:02:10.475Z,19.10
2023-05-06T21:04:13.095Z,19.17
2023-05-06T21:06:19.352Z,19.11
2023-05-06T21:08:21.675Z,19.01
2023-05-06T21:10:24.201Z,19.06
2023-05-06T21:12:26.801Z,19.08
2023-05-06T21:14:29.198Z,18.81
2023-05-06T21:16:31.732Z,18.65
2023-05-06T21:18:34.086Z,18.77
2023-05-06T21:20:36.479Z,18.71
2023-05-06T21:22:39.091Z,18.79
2023-05-06T21:24:41.343Z,18.83
2023-05-06T21:26:43.674Z,18.65
2023-05-06T21:28:51.329Z,18.67
2023-05-06T21:30:53.880Z,18.68
2023-05-06T21:32:56.185Z,18.76
2023-05-06T21:35:02.084Z,18.74
2023-05-06T21:37:04.398Z,18.71
2023-05-06T21:39:09.569Z,18.54
2023-05-06T21:41:12.177Z,18.41
2023-05-06T21:43:17.804Z,18.48
2023-05-06T21:45:21.018Z,18.61
2023-05-06T21:47:23.580Z,18.47
2023-05-06T21:49:25.966Z,18.49
2023-05-06T21:51:29.503Z,18.60
2023-05-06T21:53:32.176Z,18.51
2023-05-06T21:55:34.646Z,18.39
2023-05-06T21:57:37.188Z,18.39
2023-05-06T21:59:39.851Z,18.53
2023-05-06T22:01:42.267Z,18.41
2023-05-06T22:03:46.117Z,18.35
2023-05-06T22:05:48.549Z,18.39
2023-05-06T22:07:51.046Z,18.36
2023-05-06T22:09:53.584Z,18.22
2023-05-06T22:11:55.907Z,17.94
2023-05-06T22:13:58.219Z,17.91
2023-05-06T22:16:00.850Z,17.73
2023-05-06T22:18:03.292Z,17.74
2023-05-06T22:20:06.714Z,17.60
2023-05-06T22:22:09.621Z,17.70
2023-05-06T22:24:11.853Z,17.59
2023-05-06T22:26:14.196Z,17.64
2023-05-06T22:28:16.928Z,17.45
2023-05-06T22:30:19.430Z,17.46
2023-05-06T22:32:21.877Z,17.38
2023-05-06T22:34:24.537Z,17.35
2023-05-06T22:36:29.034Z,17.52
2023-05-06T22:38:31.530Z,17.66
2023-05-06T22:40:34.092Z,17.67
2023-05-06T22:42:36.508Z,17.55
2023-05-06T22:44:38.826Z,17.62
2023-05-06T22:46:41.428Z,17.54
2023-05-06T22:48:47.053Z,17.52
2023-05-06T22:50:49.340Z,17.74
2023-05-06T22:52:51.986Z,17.62
